Time;durP1;ratioP1;P1;durP2;ratioP2;P2;SDS_P1;SDS_P2;PMS_P1;PMS_P2;Temp;Humidity;BMP_temperature;BMP_pressure;BME280_temperature;BME280_humidity;BME280_pressure;Samples;Min_cycle;Max_cycle;Signal;HPM_P1;HPM_P2
2020/12/13 00:00:34;;;;;;;27.37;14.33;;;;;;;-0.92;97.36;99828.31;1816459;79;21121;-66
2020/12/13 00:03:02;;;;;;;25.73;15.37;;;;;;;-1.00;97.32;99821.23;1816624;79;21098;-64
2020/12/13 00:05:30;;;;;;;31.10;17.47;;;;;;;-1.04;97.37;99824.39;1788358;79;21378;-65
2020/12/13 00:07:57;;;;;;;30.83;19.27;;;;;;;-1.04;97.59;99827.03;1804123;78;21149;-64
2020/12/13 00:10:25;;;;;;;29.50;16.57;;;;;;;-0.98;97.81;99828.50;1745429;81;21168;-65
2020/12/13 00:12:53;;;;;;;36.77;24.30;;;;;;;-0.95;97.95;99834.74;1772545;81;21711;-64
2020/12/13 00:15:21;;;;;;;33.00;19.73;;;;;;;-0.95;97.86;99833.42;1773324;81;21732;-64
2020/12/13 00:17:51;;;;;;;31.57;18.43;;;;;;;-0.89;97.98;99832.75;1819743;78;21349;-66
2020/12/13 00:20:20;;;;;;;27.10;17.47;;;;;;;-0.86;97.92;99833.41;1817250;78;21169;-65
2020/12/13 00:22:48;;;;;;;25.70;14.23;;;;;;;-0.83;97.95;99840.48;1819672;78;21098;-65
2020/12/13 00:25:16;;;;;;;31.47;16.13;;;;;;;-0.82;97.84;99839.48;1819578;78;20994;-63
2020/12/13 00:27:43;;;;;;;25.07;15.03;;;;;;;-0.83;97.73;99841.80;1817429;78;21089;-64
2020/12/13 00:30:11;;;;;;;32.60;18.90;;;;;;;-0.87;97.82;99848.42;1819561;78;22539;-64
2020/12/13 00:32:38;;;;;;;28.83;15.57;;;;;;;-0.92;97.85;99844.98;1819547;78;21757;-64
2020/12/13 00:35:07;;;;;;;23.87;14.07;;;;;;;-0.86;98.06;99849.25;1819600;78;21191;-66
2020/12/13 00:37:34;;;;;;;26.07;16.40;;;;;;;-0.81;98.16;99849.52;1817621;78;21570;-66
2020/12/13 00:40:02;;;;;;;23.10;12.33;;;;;;;-0.78;98.15;99851.34;1819548;78;21101;-64
2020/12/13 00:42:29;;;;;;;18.87;12.87;;;;;;;-0.72;98.27;99848.52;1812953;78;22377;-63
2020/12/13 00:44:57;;;;;;;19.37;13.13;;;;;;;-0.66;98.25;99840.70;1795772;78;21130;-64
2020/12/13 00:47:25;;;;;;;31.57;15.53;;;;;;;-0.69;98.06;99846.84;1814341;78;20944;-66
2020/12/13 00:49:54;;;;;;;32.40;18.47;;;;;;;-0.74;98.05;99841.25;1801067;78;21164;-64
2020/12/13 00:52:22;;;;;;;29.73;19.20;;;;;;;-0.84;98.05;99839.32;1819662;78;21122;-68
2020/12/13 00:54:50;;;;;;;26.67;17.83;;;;;;;-0.81;98.31;99840.28;1818893;78;21371;-67
2020/12/13 00:57:18;;;;;;;32.60;18.87;;;;;;;-0.76;98.43;99844.05;1788595;78;21034;-64
2020/12/13 00:59:46;;;;;;;32.03;22.57;;;;;;;-0.70;98.52;99838.58;1787686;78;21133;-64
2020/12/13 01:02:13;;;;;;;26.43;18.60;;;;;;;-0.69;98.44;99833.14;1788256;78;21126;-64
2020/12/13 01:04:41;;;;;;;26.13;16.83;;;;;;;-0.67;98.46;99834.30;1808267;78;21161;-63
2020/12/13 01:07:09;;;;;;;22.40;16.07;;;;;;;-0.69;98.49;99831.81;1819596;78;21358;-66
2020/12/13 01:09:38;;;;;;;29.00;19.00;;;;;;;-0.69;98.51;99828.34;1786743;78;21156;-67
2020/12/13 01:12:06;;;;;;;24.00;15.27;;;;;;;-0.70;98.53;99828.84;1800525;79;21177;-69
2020/12/13 01:14:33;;;;;;;29.77;18.93;;;;;;;-0.64;98.72;99829.97;1785022;79;21591;-66
2020/12/13 01:17:01;;;;;;;25.00;15.50;;;;;;;-0.58;98.72;99825.32;1784770;79;21562;-66
2020/12/13 01:19:28;;;;;;;15.40;10.00;;;;;;;-0.55;98.71;99821.82;1784493;79;23195;-66
2020/12/13 01:21:56;;;;;;;21.07;13.50;;;;;;;-0.52;98.79;99820.14;1784298;80;21133;-67
2020/12/13 01:24:24;;;;;;;22.17;14.13;;;;;;;-0.53;98.68;99821.13;1816304;79;21142;-67
2020/12/13 01:26:52;;;;;;;16.10;10.40;;;;;;;-0.54;98.73;99817.36;1816526;79;21106;-65
2020/12/13 01:29:20;;;;;;;21.73;13.83;;;;;;;-0.50;98.91;99819.48;1816620;79;21146;-65
2020/12/13 01:31:48;;;;;;;22.27;14.77;;;;;;;-0.56;98.88;99810.92;1794960;78;21199;-69
2020/12/13 01:34:15;;;;;;;22.53;13.77;;;;;;;-0.56;98.95;99810.10;1784550;79;21880;-68
2020/12/13 01:36:43;;;;;;;23.03;18.30;;;;;;;-0.53;99.16;99812.41;1785222;79;21524;-65
2020/12/13 01:39:10;;;;;;;17.57;12.63;;;;;;;-0.52;99.18;99816.67;1784529;80;21745;-67
2020/12/13 01:41:38;;;;;;;27.10;19.23;;;;;;;-0.51;99.22;99815.19;1785236;79;21177;-68
2020/12/13 01:44:06;;;;;;;22.87;14.30;;;;;;;-0.49;99.26;99815.84;1785297;79;21199;-69
2020/12/13 01:46:37;;;;;;;23.57;15.33;;;;;;;-0.41;99.46;99813.63;1806389;79;21229;-65
2020/12/13 01:49:08;;;;;;;24.30;14.87;;;;;;;-0.40;99.34;99811.81;1789505;79;20975;-65
2020/12/13 01:52:05;;;;;;;25.57;16.47;;;;;;;-0.42;99.31;99811.16;1801897;79;21083;-66
2020/12/13 01:54:20;;;;;;;28.63;18.73;;;;;;;-0.44;99.31;99810.03;1811504;79;21596;-65
2020/12/13 01:56:55;;;;;;;23.20;12.30;;;;;;;-0.45;99.31;99811.84;1816347;79;21131;-69
2020/12/13 01:59:25;;;;;;;32.50;19.80;;;;;;;-0.41;99.40;99803.06;1816439;79;21088;-65
2020/12/13 02:01:57;;;;;;;28.17;18.80;;;;;;;-0.39;99.41;99804.22;1787357;79;21720;-64
2020/12/13 02:04:27;;;;;;;30.90;20.00;;;;;;;-0.38;99.50;99806.66;1784206;80;21590;-65
2020/12/13 02:06:54;;;;;;;20.77;14.93;;;;;;;-0.34;99.57;99810.63;1759168;79;21118;-68
2020/12/13 02:09:23;;;;;;;29.50;18.77;;;;;;;-0.28;99.57;99803.78;1801681;77;21359;-66
2020/12/13 02:11:53;;;;;;;24.40;14.93;;;;;;;-0.27;99.54;99802.79;1806516;79;21101;-65
2020/12/13 02:14:21;;;;;;;28.20;17.40;;;;;;;-0.28;99.49;99796.68;1807938;79;21736;-67
2020/12/13 02:16:50;;;;;;;27.03;16.00;;;;;;;-0.28;99.42;99805.10;1804796;79;21639;-70
2020/12/13 02:19:19;;;;;;;26.07;16.33;;;;;;;-0.33;99.58;99805.63;1778753;79;21607;-73
2020/12/13 02:21:48;;;;;;;31.97;20.13;;;;;;;-0.34;99.63;99804.52;1786233;79;22337;-69
2020/12/13 02:24:16;;;;;;;32.03;20.60;;;;;;;-0.36;99.60;99809.96;1785795;79;21044;-68
2020/12/13 02:26:44;;;;;;;20.50;13.83;;;;;;;-0.30;99.92;99811.08;1779891;80;21572;-66
2020/12/13 02:29:12;;;;;;;26.67;15.60;;;;;;;-0.26;100.00;99809.23;1798558;79;21035;-64
2020/12/13 02:31:40;;;;;;;27.60;14.80;;;;;;;-0.30;100.00;99812.41;1808599;79;21154;-68
2020/12/13 02:34:08;;;;;;;25.60;17.80;;;;;;;-0.32;100.00;99815.21;1808950;79;21192;-65
2020/12/13 02:36:36;;;;;;;29.03;18.07;;;;;;;-0.34;100.00;99804.02;1799935;79;21141;-67
2020/12/13 02:39:05;;;;;;;30.90;16.50;;;;;;;-0.32;100.00;99807.28;1776975;80;20963;-65
2020/12/13 02:41:35;;;;;;;26.40;16.37;;;;;;;-0.31;100.00;99806.30;1781816;79;21622;-65
2020/12/13 02:44:02;;;;;;;27.60;16.33;;;;;;;-0.28;100.00;99806.42;1758550;81;21159;-65
2020/12/13 02:46:30;;;;;;;29.07;18.80;;;;;;;-0.29;100.00;99810.91;1790094;80;21657;-64
2020/12/13 02:48:58;;;;;;;22.37;16.20;;;;;;;-0.27;100.00;99806.75;1735281;81;21140;-65
2020/12/13 02:51:26;;;;;;;26.13;16.20;;;;;;;-0.26;100.00;99799.98;1758659;81;22342;-65
2020/12/13 02:53:54;;;;;;;28.43;17.37;;;;;;;-0.24;100.00;99796.64;1758456;81;21163;-64
2020/12/13 02:56:23;;;;;;;22.43;15.53;;;;;;;-0.20;100.00;99796.63;1759003;81;21183;-65
2020/12/13 02:58:52;;;;;;;25.67;19.23;;;;;;;-0.16;100.00;99787.84;1758960;81;21376;-69
2020/12/13 03:01:20;;;;;;;19.67;12.70;;;;;;;-0.14;100.00;99793.26;1759015;81;21120;-63
2020/12/13 03:03:48;;;;;;;22.30;14.13;;;;;;;-0.11;100.00;99797.38;1759023;81;21103;-64
2020/12/13 03:06:16;;;;;;;18.63;12.53;;;;;;;-0.12;100.00;99804.98;1758923;81;21207;-65
2020/12/13 03:08:44;;;;;;;26.60;17.53;;;;;;;-0.09;100.00;99809.41;1759498;81;21175;-65
2020/12/13 03:11:11;;;;;;;20.73;14.07;;;;;;;-0.07;100.00;99801.30;1759568;81;21383;-69
2020/12/13 03:13:39;;;;;;;23.50;16.10;;;;;;;-0.07;100.00;99799.48;1758977;81;21041;-64
2020/12/13 03:16:07;;;;;;;26.37;16.03;;;;;;;-0.11;100.00;99793.41;1759086;81;21125;-67
2020/12/13 03:18:34;;;;;;;23.77;15.00;;;;;;;-0.12;100.00;99808.95;1759120;81;21629;-65
2020/12/13 03:21:02;;;;;;;17.90;12.17;;;;;;;-0.07;100.00;99805.27;1758887;81;21140;-65
2020/12/13 03:23:29;;;;;;;26.03;16.70;;;;;;;-0.02;100.00;99811.67;1755783;81;22237;-68
2020/12/13 03:25:57;;;;;;;25.87;14.57;;;;;;;-0.01;100.00;99805.39;1758496;81;21148;-68
2020/12/13 03:28:24;;;;;;;24.43;16.27;;;;;;;0.02;100.00;99804.20;1758649;81;21593;-64
2020/12/13 03:30:52;;;;;;;20.93;15.33;;;;;;;0.04;100.00;99808.81;1758645;81;21136;-65
2020/12/13 03:33:22;;;;;;;31.63;20.70;;;;;;;0.06;100.00;99813.41;1727798;81;21179;-65
2020/12/13 03:35:50;;;;;;;29.17;16.37;;;;;;;0.06;100.00;99817.87;1728499;81;21193;-65
2020/12/13 03:38:17;;;;;;;26.90;16.60;;;;;;;0.08;100.00;99814.56;1728668;83;21239;-65
2020/12/13 03:40:45;;;;;;;26.70;17.70;;;;;;;0.08;100.00;99809.27;1758238;81;21188;-65
2020/12/13 03:43:13;;;;;;;27.73;17.27;;;;;;;0.10;100.00;99805.92;1756197;80;21607;-66
2020/12/13 03:45:40;;;;;;;24.43;18.30;;;;;;;0.20;100.00;99806.50;1809125;79;21560;-68
2020/12/13 03:48:08;;;;;;;22.60;14.80;;;;;;;0.22;100.00;99801.86;1809026;79;21572;-64
2020/12/13 03:50:39;;;;;;;24.93;18.43;;;;;;;0.25;100.00;99801.48;1809047;79;21174;-64
2020/12/13 03:53:12;;;;;;;27.07;17.23;;;;;;;0.26;100.00;99803.14;1805722;79;21571;-67
2020/12/13 03:55:41;;;;;;;29.92;18.52;;;;;;;0.27;100.00;99788.42;1778336;79;20995;-66
2020/12/13 03:58:10;;;;;;;26.47;16.87;;;;;;;0.30;100.00;99784.58;1776999;80;21122;-65
2020/12/13 04:00:38;;;;;;;27.00;19.30;;;;;;;0.33;100.00;99782.41;1777906;79;21206;-65
2020/12/13 04:03:07;;;;;;;30.60;18.37;;;;;;;0.40;100.00;99790.42;1777248;80;21594;-66
2020/12/13 04:05:35;;;;;;;26.27;16.80;;;;;;;0.38;100.00;99788.48;1777092;80;21027;-65
2020/12/13 04:08:03;;;;;;;32.87;21.83;;;;;;;0.37;100.00;99791.62;1789929;79;21114;-66
2020/12/13 04:10:30;;;;;;;39.73;23.87;;;;;;;0.38;100.00;99788.48;1814847;78;21551;-68
2020/12/13 04:12:58;;;;;;;30.67;19.50;;;;;;;0.43;100.00;99786.91;1813534;79;21317;-65
2020/12/13 04:15:26;;;;;;;31.17;18.40;;;;;;;0.47;100.00;99784.73;1785202;79;21177;-66
2020/12/13 04:17:54;;;;;;;29.00;20.37;;;;;;;0.44;100.00;99793.02;1784364;80;21129;-67
2020/12/13 04:20:22;;;;;;;23.23;15.03;;;;;;;0.48;100.00;99798.27;1786408;79;21102;-67
2020/12/13 04:22:50;;;;;;;34.87;19.77;;;;;;;0.54;100.00;99798.04;1784414;80;21173;-66
2020/12/13 04:25:19;;;;;;;31.07;18.80;;;;;;;0.55;100.00;99797.87;1784336;80;21271;-69
2020/12/13 04:27:47;;;;;;;29.10;20.47;;;;;;;0.57;100.00;99795.87;1784454;80;21563;-66
2020/12/13 04:30:15;;;;;;;34.10;22.13;;;;;;;0.58;100.00;99802.78;1784251;80;21173;-66
2020/12/13 04:32:43;;;;;;;31.77;19.30;;;;;;;0.60;100.00;99806.08;1812019;79;21996;-67
2020/12/13 04:35:11;;;;;;;32.67;18.63;;;;;;;0.63;100.00;99809.67;1795613;79;21113;-66
2020/12/13 04:37:38;;;;;;;38.23;23.00;;;;;;;0.66;100.00;99816.44;1785029;80;21157;-66
2020/12/13 04:40:06;;;;;;;33.57;21.20;;;;;;;0.69;100.00;99812.92;1792788;79;21626;-66
2020/12/13 04:42:36;;;;;;;28.80;19.07;;;;;;;0.70;100.00;99810.59;1816477;79;21110;-67
2020/12/13 04:45:06;;;;;;;29.07;18.53;;;;;;;0.74;100.00;99805.25;1816654;79;21595;-67
2020/12/13 04:47:36;;;;;;;40.60;26.07;;;;;;;0.74;100.00;99803.92;1816698;79;21142;-69
2020/12/13 04:50:04;;;;;;;41.10;24.23;;;;;;;0.78;100.00;99805.70;1807851;79;21456;-70
2020/12/13 04:52:32;;;;;;;40.53;21.10;;;;;;;0.80;100.00;99804.52;1801340;79;20987;-66
2020/12/13 04:54:59;;;;;;;38.10;23.07;;;;;;;0.83;100.00;99801.50;1816472;79;21141;-67
2020/12/13 04:57:27;;;;;;;35.63;18.80;;;;;;;0.90;100.00;99800.27;1816522;79;21658;-66
2020/12/13 04:59:55;;;;;;;27.93;17.10;;;;;;;0.95;100.00;99806.33;1814262;79;21129;-68
2020/12/13 05:02:22;;;;;;;40.53;27.50;;;;;;;0.98;100.00;99816.55;1787150;79;22303;-71
2020/12/13 05:04:51;;;;;;;41.87;27.20;;;;;;;0.99;100.00;99811.07;1787429;79;21042;-66
2020/12/13 05:07:21;;;;;;;45.23;25.27;;;;;;;1.05;100.00;99810.84;1816470;79;21126;-70
2020/12/13 05:09:50;;;;;;;55.60;33.40;;;;;;;1.05;100.00;99815.64;1816360;79;21106;-68
2020/12/13 05:12:24;;;;;;;41.90;21.50;;;;;;;1.05;100.00;99811.66;1789986;79;21581;-70
2020/12/13 05:14:52;;;;;;;46.10;27.53;;;;;;;1.07;100.00;99818.90;1784381;80;21195;-67
2020/12/13 05:17:20;;;;;;;46.03;29.03;;;;;;;1.06;100.00;99816.43;1784204;80;21164;-67
2020/12/13 05:19:49;;;;;;;42.60;25.70;;;;;;;1.06;100.00;99815.93;1813374;79;21161;-68
2020/12/13 05:22:21;;;;;;;46.67;27.93;;;;;;;1.07;100.00;99812.28;1815343;79;21126;-66
2020/12/13 05:24:50;;;;;;;45.37;25.47;;;;;;;1.08;100.00;99816.58;1817315;79;21126;-70
2020/12/13 05:27:23;;;;;;;40.97;24.13;;;;;;;1.13;100.00;99817.34;1816854;79;21189;-67
2020/12/13 05:29:53;;;;;;;;;;;;;;;1.18;100.00;99819.75;1815403;79;21610;-67
2020/12/13 05:34:58;;;;;;;52.93;34.10;;;;;;;1.24;100.00;99814.22;1810283;75;22850;-68
2020/12/13 05:37:31;;;;;;;54.50;30.77;;;;;;;1.19;100.00;99812.13;1773815;80;21026;-67
2020/12/13 05:39:58;;;;;;;40.00;23.32;;;;;;;1.20;100.00;99815.08;1738449;81;21374;-66
2020/12/13 05:45:37;;;;;;;56.10;29.87;;;;;;;1.24;100.00;99812.90;1845836;76;22733;-67
2020/12/13 05:53:22;;;;;;;59.97;29.80;;;;;;;1.20;100.00;99815.61;1785023;80;21630;-68
2020/12/13 05:55:53;;;;;;;44.40;24.73;;;;;;;1.19;100.00;99812.64;1749770;82;21069;-67
2020/12/13 05:58:21;;;;;;;46.03;26.07;;;;;;;1.22;100.00;99818.87;1751082;80;21321;-70
2020/12/13 06:00:50;;;;;;;46.40;27.17;;;;;;;1.21;100.00;99820.70;1732376;82;21614;-68
2020/12/13 06:03:26;;;;;;;59.30;31.77;;;;;;;1.20;100.00;99819.58;1741527;81;21362;-66
2020/12/13 06:06:07;;;;;;;37.93;21.83;;;;;;;1.27;100.00;99820.46;1838929;77;22685;-69
2020/12/13 06:08:57;;;;;;;59.73;32.70;;;;;;;1.26;100.00;99815.66;1791226;80;21031;-68
2020/12/13 06:11:25;;;;;;;51.30;27.93;;;;;;;1.25;100.00;99816.66;1794401;77;21330;-69
2020/12/13 06:13:54;;;;;;;58.23;31.00;;;;;;;1.28;100.00;99822.11;1721882;78;21570;-68
2020/12/13 06:16:22;;;;;;;56.60;34.67;;;;;;;1.25;100.00;99823.78;1812428;78;20939;-69
2020/12/13 06:18:50;;;;;;;56.63;36.47;;;;;;;1.21;100.00;99831.30;1790030;80;21578;-67
2020/12/13 06:21:17;;;;;;;54.07;28.73;;;;;;;1.21;100.00;99833.94;1819035;77;21352;-72
2020/12/13 06:23:47;;;;;;;53.40;29.10;;;;;;;1.23;100.00;99833.27;1731503;80;22343;-68
2020/12/13 06:26:15;;;;;;;60.50;32.13;;;;;;;1.25;100.00;99837.03;1773389;80;21185;-72
2020/12/13 06:28:45;;;;;;;56.73;30.77;;;;;;;1.24;100.00;99837.56;1744457;80;20992;-68
2020/12/13 06:31:17;;;;;;;56.07;28.53;;;;;;;1.20;100.00;99843.42;1773347;80;21595;-75
2020/12/13 06:33:46;;;;;;;51.13;29.32;;;;;;;1.23;100.00;99842.53;1773702;80;27207;-70
2020/12/13 06:36:13;;;;;;;53.93;32.07;;;;;;;1.26;100.00;99828.91;1773383;80;21327;-70
2020/12/13 06:38:42;;;;;;;46.67;25.10;;;;;;;1.32;100.00;99836.62;1750922;80;21626;-69
2020/12/13 06:41:12;;;;;;;65.77;38.63;;;;;;;1.38;100.00;99838.53;1729597;81;21195;-67
2020/12/13 06:43:51;;;;;;;56.07;31.83;;;;;;;1.39;100.00;99836.17;1726521;83;21094;-69
2020/12/13 06:46:26;;;;;;;57.37;32.20;;;;;;;1.46;100.00;99844.20;1859822;76;22693;-69
2020/12/13 06:48:54;;;;;;;47.50;25.20;;;;;;;1.39;100.00;99835.38;1856729;77;21046;-68
2020/12/13 06:51:32;;;;;;;51.77;29.57;;;;;;;1.34;100.00;99839.09;1854577;77;21196;-68
2020/12/13 06:54:06;;;;;;;59.27;28.80;;;;;;;1.32;100.00;99827.34;1848121;77;20967;-73
2020/12/13 06:56:34;;;;;;;59.57;33.43;;;;;;;1.31;100.00;99829.17;1827423;77;20931;-67
2020/12/13 06:59:05;;;;;;;48.40;28.40;;;;;;;1.29;100.00;99830.38;1827119;77;21567;-69
2020/12/13 07:01:36;;;;;;;59.17;34.70;;;;;;;1.28;100.00;99826.91;1835995;77;21030;-69
2020/12/13 07:04:27;;;;;;;67.53;40.53;;;;;;;1.28;100.00;99823.44;1838184;77;21368;-72
2020/12/13 07:09:32;;;;;;;53.53;28.13;;;;;;;1.39;100.00;99826.11;1847125;76;22677;-69
2020/12/13 07:12:01;;;;;;;41.97;24.30;;;;;;;1.32;100.00;99824.70;1817276;78;21034;-66
2020/12/13 07:14:33;;;;;;;46.20;25.30;;;;;;;1.35;100.00;99829.61;1799772;79;21406;-68
2020/12/13 07:17:11;;;;;;;59.40;33.73;;;;;;;1.38;100.00;99827.93;1794271;79;21015;-68
2020/12/13 07:19:38;;;;;;;53.57;34.40;;;;;;;1.37;100.00;99828.11;1788377;79;21595;-69
2020/12/13 07:22:11;;;;;;;41.27;24.47;;;;;;;1.40;100.00;99835.17;1817186;79;21650;-71
2020/12/13 07:24:42;;;;;;;47.80;28.02;;;;;;;1.45;100.00;99836.75;1813165;79;20960;-68
2020/12/13 07:27:10;;;;;;;46.60;27.37;;;;;;;1.42;100.00;99837.14;1816953;79;21349;-70
2020/12/13 07:29:39;;;;;;;56.77;31.63;;;;;;;1.41;100.00;99841.30;1784935;80;21054;-66
2020/12/13 07:32:06;;;;;;;43.97;28.17;;;;;;;1.39;100.00;99837.50;1795570;78;21064;-68
2020/12/13 07:34:35;;;;;;;50.77;28.20;;;;;;;1.41;100.00;99835.99;1798203;78;21655;-67
2020/12/13 07:37:03;;;;;;;46.70;28.63;;;;;;;1.43;100.00;99838.80;1779954;80;21138;-68
2020/12/13 07:39:31;;;;;;;50.93;28.90;;;;;;;1.43;100.00;99844.59;1767960;81;21431;-68
2020/12/13 07:42:01;;;;;;;43.17;24.50;;;;;;;1.50;100.00;99839.67;1753949;81;21141;-67
2020/12/13 07:44:32;;;;;;;54.30;28.05;;;;;;;1.52;100.00;99842.14;1705284;81;20999;-67
2020/12/13 07:46:59;;;;;;;44.67;26.48;;;;;;;1.47;100.00;99840.05;1753964;81;21799;-70
2020/12/13 07:49:27;;;;;;;45.40;30.10;;;;;;;1.46;100.00;99845.03;1761355;80;21141;-67
2020/12/13 07:51:56;;;;;;;45.53;27.97;;;;;;;1.50;100.00;99844.97;1784920;80;21408;-70
2020/12/13 07:54:29;;;;;;;58.00;34.30;;;;;;;1.57;100.00;99849.03;1784190;79;21038;-70
2020/12/13 07:57:11;;;;;;;39.35;24.82;;;;;;;1.54;100.00;99846.23;1779869;80;21887;-68
2020/12/13 07:59:40;;;;;;;41.95;26.52;;;;;;;1.61;100.00;99847.14;1784777;80;21546;-69
2020/12/13 08:02:12;;;;;;;50.45;28.00;;;;;;;1.60;100.00;99849.96;1784749;80;21082;-68
2020/12/13 08:04:41;;;;;;;44.77;28.47;;;;;;;1.57;100.00;99856.48;1749898;80;21566;-69
2020/12/13 08:07:10;;;;;;;47.83;27.43;;;;;;;1.54;100.00;99858.66;1783465;80;21181;-66
2020/12/13 08:09:41;;;;;;;51.17;30.83;;;;;;;1.51;100.00;99861.20;1784744;79;21126;-66
2020/12/13 08:12:10;;;;;;;46.33;26.37;;;;;;;1.52;100.00;99864.66;1767960;80;21177;-66
2020/12/13 08:14:40;;;;;;;58.17;34.60;;;;;;;1.56;100.00;99871.23;1784587;80;21583;-70
2020/12/13 08:17:09;;;;;;;54.80;30.10;;;;;;;1.54;100.00;99870.08;1785051;79;21339;-69
2020/12/13 08:19:59;;;;;;;53.23;29.37;;;;;;;1.51;100.00;99862.52;1784680;80;21125;-70
2020/12/13 08:22:32;;;;;;;50.38;28.95;;;;;;;1.49;100.00;99872.97;1780171;80;21065;-68
2020/12/13 08:25:03;;;;;;;52.13;29.60;;;;;;;1.42;100.00;99870.77;1784724;80;21781;-69
2020/12/13 08:27:37;;;;;;;54.47;30.77;;;;;;;1.46;100.00;99865.41;1779088;80;21129;-69
2020/12/13 08:30:05;;;;;;;61.68;34.92;;;;;;;1.49;100.00;99868.50;1750339;81;22262;-69
2020/12/13 08:32:36;;;;;;;55.50;31.73;;;;;;;1.51;100.00;99865.17;1742746;81;21176;-70
2020/12/13 08:35:20;;;;;;;54.43;29.97;;;;;;;1.52;100.00;99860.69;1735312;82;21034;-69
2020/12/13 08:37:59;;;;;;;49.10;27.70;;;;;;;1.53;100.00;99859.19;1735785;82;21562;-70
2020/12/13 08:40:42;;;;;;;58.75;33.88;;;;;;;1.57;100.00;99858.30;1749385;82;21621;-69
2020/12/13 08:43:12;;;;;;;57.58;31.55;;;;;;;1.55;100.00;99858.98;1731797;82;21390;-70
2020/12/13 08:45:40;;;;;;;57.93;32.90;;;;;;;1.48;100.00;99856.28;1784211;80;21161;-72
2020/12/13 08:48:09;;;;;;;60.97;32.87;;;;;;;1.43;100.00;99855.19;1772980;80;21229;-69
2020/12/13 08:50:41;;;;;;;61.00;34.37;;;;;;;1.45;100.00;99852.66;1731119;82;21148;-69
2020/12/13 08:53:27;;;;;;;57.70;34.93;;;;;;;1.46;100.00;99857.45;1748965;82;21157;-68
2020/12/13 08:56:11;;;;;;;73.73;42.57;;;;;;;1.50;100.00;99854.74;1724842;82;21202;-68
2020/12/13 08:58:52;;;;;;;60.35;37.35;;;;;;;1.50;100.00;99851.59;1723465;82;21224;-68
2020/12/13 09:03:57;;;;;;;55.83;33.27;;;;;;;1.66;100.00;99841.27;1868993;76;22707;-72
2020/12/13 09:06:28;;;;;;;59.90;38.30;;;;;;;1.60;100.00;99845.98;1826222;77;21111;-72
2020/12/13 09:09:14;;;;;;;60.50;36.37;;;;;;;1.63;100.00;99842.98;1848610;77;21202;-69
2020/12/13 09:11:43;;;;;;;61.63;34.40;;;;;;;1.68;100.00;99840.05;1832601;77;21035;-69
2020/12/13 09:14:11;;;;;;;57.13;29.95;;;;;;;1.69;100.00;99839.05;1838498;77;20994;-68
2020/12/13 09:16:39;;;;;;;42.10;25.52;;;;;;;1.74;100.00;99846.44;1831560;77;21018;-70
2020/12/13 09:19:10;;;;;;;49.67;30.20;;;;;;;1.79;100.00;99837.91;1839976;77;21003;-72
2020/12/13 09:21:56;;;;;;;66.07;37.20;;;;;;;1.75;100.00;99829.02;1840785;77;21186;-71
2020/12/13 09:24:34;;;;;;;54.83;30.37;;;;;;;1.71;100.00;99823.79;1841783;77;21003;-68
2020/12/13 09:27:11;;;;;;;62.50;31.07;;;;;;;1.72;100.00;99820.13;1790117;79;21135;-69
2020/12/13 09:29:39;;;;;;;59.35;30.75;;;;;;;1.67;100.00;99815.91;1793180;78;21120;-69
2020/12/13 09:32:09;;;;;;;58.80;35.50;;;;;;;1.68;100.00;99814.87;1757178;81;21145;-71
2020/12/13 09:34:38;;;;;;;67.60;38.48;;;;;;;1.68;100.00;99805.59;1779386;80;21383;-68
2020/12/13 09:37:12;;;;;;;60.65;37.35;;;;;;;1.74;100.00;99810.14;1755033;80;21047;-69
2020/12/13 09:39:40;;;;;;;67.05;37.65;;;;;;;1.74;100.00;99807.49;1744837;81;22338;-75
2020/12/13 09:42:11;;;;;;;53.95;28.77;;;;;;;1.76;100.00;99809.96;1776032;80;21602;-69
2020/12/13 09:44:39;;;;;;;51.18;31.85;;;;;;;1.77;100.00;99798.86;1741740;81;21205;-69
2020/12/13 09:47:07;;;;;;;54.30;30.48;;;;;;;1.74;100.00;99804.84;1734310;82;21145;-70
2020/12/13 09:49:36;;;;;;;57.23;32.05;;;;;;;1.69;100.00;99802.44;1762734;81;21208;-76
2020/12/13 09:52:05;;;;;;;62.03;35.15;;;;;;;1.65;100.00;99800.68;1734745;82;21140;-71
2020/12/13 09:54:32;;;;;;;56.42;34.27;;;;;;;1.65;100.00;99807.81;1734792;82;21156;-71
2020/12/13 09:57:00;;;;;;;52.73;30.77;;;;;;;1.64;100.00;99802.19;1734620;82;21622;-69
2020/12/13 09:59:28;;;;;;;60.52;34.85;;;;;;;1.60;100.00;99795.13;1734332;82;21181;-70
2020/12/13 10:01:56;;;;;;;57.80;27.62;;;;;;;1.60;100.00;99796.45;1747657;81;21586;-72
2020/12/13 10:04:24;;;;;;;67.95;32.78;;;;;;;1.60;100.00;99791.66;1750485;81;21175;-71
2020/12/13 10:07:17;;;;;;;49.65;31.33;;;;;;;1.60;100.00;99791.66;1750106;81;21152;-71
2020/12/13 10:09:31;;;;;;;57.13;33.13;;;;;;;1.66;100.00;99789.07;1707224;83;21176;-72
2020/12/13 10:11:59;;;;;;;61.45;35.08;;;;;;;1.71;100.00;99792.48;1710236;83;21194;-70
2020/12/13 10:14:27;;;;;;;59.73;34.50;;;;;;;1.72;100.00;99790.97;1710006;83;21170;-72
2020/12/13 10:16:56;;;;;;;45.10;27.37;;;;;;;1.69;100.00;99784.70;1709915;84;21170;-70
2020/12/13 10:19:27;;;;;;;48.05;26.40;;;;;;;1.70;100.00;99792.16;1709974;83;21139;-72
2020/12/13 10:21:55;;;;;;;42.30;27.25;;;;;;;1.70;100.00;99782.38;1731594;82;21169;-70
2020/12/13 10:24:23;;;;;;;49.48;30.43;;;;;;;1.76;100.00;99782.13;1723906;82;21595;-76
2020/12/13 10:26:50;;;;;;;56.05;28.65;;;;;;;1.73;99.82;99787.79;1683741;84;21618;-72
2020/12/13 10:29:18;;;;;;;50.77;27.90;;;;;;;1.64;99.72;99778.33;1732562;81;21196;-69
2020/12/13 10:31:46;;;;;;;46.73;27.90;;;;;;;1.60;99.89;99775.75;1740139;81;21140;-72
2020/12/13 10:34:16;;;;;;;36.90;21.07;;;;;;;1.60;100.00;99774.42;1718011;82;21326;-71
2020/12/13 10:36:46;;;;;;;46.67;24.87;;;;;;;1.61;100.00;99776.89;1716715;83;22355;-73
2020/12/13 10:39:19;;;;;;;50.33;30.68;;;;;;;1.62;100.00;99783.02;1740262;82;21137;-72
2020/12/13 10:41:43;;;;;;;49.42;26.17;;;;;;;1.60;100.00;99775.75;1742259;82;21252;-71
2020/12/13 10:44:14;;;;;;;45.05;26.52;;;;;;;1.58;100.00;99773.81;1742612;82;21185;-73
2020/12/13 10:46:41;;;;;;;41.05;22.95;;;;;;;1.53;100.00;99766.93;1742677;82;21207;-71
2020/12/13 10:49:08;;;;;;;36.00;22.45;;;;;;;1.57;100.00;99769.52;1723612;82;21499;-72
2020/12/13 10:51:37;;;;;;;39.55;26.52;;;;;;;1.60;100.00;99764.64;1722304;82;21191;-72
2020/12/13 10:54:04;;;;;;;46.53;27.02;;;;;;;1.59;100.00;99764.33;1719106;82;21645;-73
2020/12/13 10:56:33;;;;;;;30.45;19.85;;;;;;;1.58;100.00;99769.83;1733216;82;21022;-73
2020/12/13 10:59:00;;;;;;;38.42;22.75;;;;;;;1.59;100.00;99764.33;1717459;82;21657;-76
2020/12/13 11:01:28;;;;;;;33.85;20.50;;;;;;;1.57;100.00;99761.06;1729569;82;22395;-73
2020/12/13 11:03:57;;;;;;;40.05;26.35;;;;;;;1.59;100.00;99762.17;1740187;81;21599;-71
2020/12/13 11:06:24;;;;;;;38.05;23.62;;;;;;;1.61;100.00;99766.79;1739169;82;21177;-71
2020/12/13 11:08:53;;;;;;;36.53;23.87;;;;;;;1.60;100.00;99772.59;1749675;81;21012;-72
2020/12/13 11:11:21;;;;;;;36.33;22.40;;;;;;;1.60;100.00;99773.09;1709488;82;22255;-70
2020/12/13 11:13:50;;;;;;;30.08;20.68;;;;;;;1.60;100.00;99773.92;1739275;81;21211;-81
2020/12/13 11:16:19;;;;;;;34.75;22.80;;;;;;;1.57;100.00;99771.66;1747802;81;21173;-73
2020/12/13 11:18:49;;;;;;;35.88;23.05;;;;;;;1.56;100.00;99770.02;1752047;80;21124;-81
2020/12/13 11:21:18;;;;;;;33.67;20.57;;;;;;;1.57;100.00;99770.33;1755270;80;21071;-81
2020/12/13 11:23:50;;;;;;;36.60;21.87;;;;;;;1.58;100.00;99773.81;1737862;82;21150;-76
2020/12/13 11:26:21;;;;;;;25.00;17.65;;;;;;;1.56;100.00;99775.31;1724766;82;21317;-75
2020/12/13 11:28:51;;;;;;;29.40;19.02;;;;;;;1.57;100.00;99778.29;1729341;82;21603;-80
2020/12/13 11:31:19;;;;;;;33.83;22.17;;;;;;;1.60;100.00;99775.75;1739095;81;21548;-73
2020/12/13 11:33:47;;;;;;;30.25;21.07;;;;;;;1.60;100.00;99784.52;1739025;81;21576;-71
2020/12/13 11:36:14;;;;;;;30.75;20.48;;;;;;;1.61;100.00;99779.55;1738814;81;21556;-69
2020/12/13 11:38:42;;;;;;;26.05;17.62;;;;;;;1.61;100.00;99778.22;1741790;81;21387;-71
2020/12/13 11:41:10;;;;;;;33.33;18.20;;;;;;;1.61;100.00;99782.20;1737978;82;21576;-70
2020/12/13 11:43:37;;;;;;;29.37;18.00;;;;;;;1.60;100.00;99775.24;1750682;80;20953;-70